createdAt,value
2019-05-30T00:05:08.930Z,96377.00
2019-05-30T00:10:40.159Z,96376.00
2019-05-30T00:16:09.425Z,96383.00
2019-05-30T00:21:42.927Z,96391.00
2019-05-30T00:27:12.199Z,96383.00
2019-05-30T00:32:41.472Z,96388.00
2019-05-30T00:38:15.496Z,96393.00
2019-05-30T00:44:09.815Z,96387.00
2019-05-30T00:49:39.097Z,96380.00
2019-05-30T00:55:08.500Z,96385.00
2019-05-30T01:00:43.236Z,96384.00
2019-05-30T01:06:08.994Z,96380.00
2019-05-30T01:11:38.292Z,96386.00
2019-05-30T01:17:07.611Z,96384.00
2019-05-30T01:22:36.876Z,96376.00
2019-05-30T01:28:07.717Z,96386.00
2019-05-30T01:33:37.212Z,96386.00
2019-05-30T01:39:08.152Z,96381.00
2019-05-30T01:44:37.570Z,96384.00
2019-05-30T01:50:09.151Z,96386.00
2019-05-30T01:55:38.421Z,96375.00
2019-05-30T02:01:23.666Z,96374.00
2019-05-30T02:06:38.742Z,96378.00
2019-05-30T02:12:11.773Z,96375.00
2019-05-30T02:17:40.942Z,96372.00
2019-05-30T02:23:11.946Z,96385.00
2019-05-30T02:28:41.191Z,96386.00
2019-05-30T02:34:14.811Z,96390.00
2019-05-30T02:39:44.060Z,96385.00
2019-05-30T02:45:13.859Z,96391.00
2019-05-30T02:50:43.606Z,96389.00
2019-05-30T02:56:13.158Z,96392.00
2019-05-30T03:01:59.280Z,96396.00
2019-05-30T03:07:15.321Z,96398.00
2019-05-30T03:12:44.721Z,96406.00
2019-05-30T03:18:14.946Z,96399.00
2019-05-30T03:23:44.642Z,96401.00
2019-05-30T03:29:14.478Z,96413.00
2019-05-30T03:34:43.877Z,96412.00
2019-05-30T03:40:13.379Z,96419.00
2019-05-30T03:45:44.700Z,96425.00
2019-05-30T03:51:15.882Z,96420.00
2019-05-30T03:56:54.976Z,96421.00
2019-05-30T04:02:58.046Z,96425.00
2019-05-30T04:08:25.265Z,96433.00
2019-05-30T04:13:58.989Z,96443.00
2019-05-30T04:19:28.265Z,96450.00
2019-05-30T04:24:57.540Z,96453.00
2019-05-30T04:30:26.969Z,96455.00
2019-05-30T04:35:56.252Z,96458.00
2019-05-30T04:41:25.587Z,96463.00
2019-05-30T04:46:54.878Z,96468.00
2019-05-30T04:52:25.066Z,96476.00
2019-05-30T04:57:54.408Z,96471.00
2019-05-30T05:03:44.496Z,96483.00
2019-05-30T05:08:54.703Z,96486.00
2019-05-30T05:14:24.538Z,96486.00
2019-05-30T05:19:53.775Z,96492.00
2019-05-30T05:25:23.617Z,96494.00
2019-05-30T05:30:52.928Z,96494.00
2019-05-30T05:36:23.082Z,96498.00
2019-05-30T05:41:52.370Z,96500.00
2019-05-30T05:47:24.551Z,96499.00
2019-05-30T05:52:53.875Z,96506.00
2019-05-30T05:58:23.945Z,96516.00
2019-05-30T06:03:54.153Z,96516.00
2019-05-30T06:09:24.597Z,96511.00
2019-05-30T06:14:55.009Z,96517.00
2019-05-30T06:20:25.346Z,96524.00
2019-05-30T06:25:54.640Z,96524.00
2019-05-30T06:31:24.465Z,96541.00
2019-05-30T06:36:53.860Z,96538.00
2019-05-30T06:42:23.678Z,96531.00
2019-05-30T06:47:53.935Z,96541.00
2019-05-30T06:53:23.370Z,96543.00
2019-05-30T06:58:52.582Z,96543.00
2019-05-30T07:04:23.198Z,96535.00
2019-05-30T07:09:52.871Z,96539.00
2019-05-30T07:15:23.087Z,96542.00
2019-05-30T07:20:52.448Z,96543.00
2019-05-30T07:26:21.722Z,96540.00
2019-05-30T07:31:51.021Z,96550.00
2019-05-30T07:37:20.318Z,96552.00
2019-05-30T07:42:49.597Z,96561.00
2019-05-30T07:48:38.640Z,96564.00
2019-05-30T07:54:08.009Z,96570.00
2019-05-30T07:59:38.625Z,96567.00
2019-05-30T08:05:22.717Z,96570.00
2019-05-30T08:10:41.158Z,96571.00
2019-05-30T08:16:10.424Z,96568.00
2019-05-30T08:21:39.732Z,96559.00
2019-05-30T08:27:09.774Z,96557.00
2019-05-30T08:32:39.059Z,96569.00
2019-05-30T08:38:08.327Z,96573.00
2019-05-30T08:43:37.674Z,96571.00
2019-05-30T08:49:07.145Z,96569.00
2019-05-30T08:54:36.517Z,96568.00
2019-05-30T09:00:09.563Z,96569.00
2019-05-30T09:05:56.405Z,96570.00
2019-05-30T09:11:09.853Z,96573.00
2019-05-30T09:16:39.125Z,96567.00
2019-05-30T09:22:08.515Z,96569.00
2019-05-30T09:27:39.371Z,96569.00
2019-05-30T09:33:08.930Z,96547.00
2019-05-30T09:38:45.504Z,96553.00
2019-05-30T09:44:14.880Z,96560.00
2019-05-30T09:49:44.676Z,96566.00
2019-05-30T09:55:14.789Z,96562.00
2019-05-30T10:00:45.331Z,96560.00
2019-05-30T10:06:28.572Z,96554.00
2019-05-30T10:11:47.178Z,96560.00
2019-05-30T10:17:16.632Z,96559.00
2019-05-30T10:22:48.666Z,96562.00
2019-05-30T10:28:18.200Z,96561.00
2019-05-30T10:33:49.110Z,96562.00
2019-05-30T10:39:18.671Z,96562.00
2019-05-30T10:44:51.099Z,96554.00
2019-05-30T10:50:21.659Z,96553.00
2019-05-30T10:55:53.611Z,96537.00
2019-05-30T11:01:52.878Z,96556.00
2019-05-30T11:08:04.006Z,96541.00
2019-05-30T11:13:29.282Z,96530.00
2019-05-30T11:18:58.607Z,96526.00
2019-05-30T11:24:27.977Z,96515.00
2019-05-30T11:29:58.625Z,96530.00
2019-05-30T11:35:28.337Z,96535.00
2019-05-30T11:40:57.670Z,96526.00
2019-05-30T11:46:26.995Z,96512.00
2019-05-30T11:51:57.787Z,96510.00
2019-05-30T11:57:27.166Z,96498.00
2019-05-30T12:02:56.629Z,96496.00
2019-05-30T12:08:28.362Z,96494.00
2019-05-30T12:13:57.629Z,96496.00
2019-05-30T12:19:28.946Z,96494.00
2019-05-30T12:24:58.230Z,96488.00
2019-05-30T12:30:37.555Z,96494.00
2019-05-30T12:36:08.049Z,96504.00
2019-05-30T12:41:37.407Z,96497.00
2019-05-30T12:47:09.820Z,96490.00
2019-05-30T12:52:39.135Z,96490.00
2019-05-30T12:58:08.779Z,96478.00
2019-05-30T13:03:38.059Z,96488.00
2019-05-30T13:09:12.092Z,96484.00
2019-05-30T13:14:41.510Z,96467.00
2019-05-30T13:20:13.540Z,96464.00
2019-05-30T13:25:42.848Z,96475.00
2019-05-30T13:31:13.155Z,96472.00
2019-05-30T13:36:42.438Z,96478.00
2019-05-30T13:42:14.831Z,96473.00
2019-05-30T13:47:44.086Z,96469.00
2019-05-30T13:53:13.360Z,96475.00
2019-05-30T13:58:42.824Z,96478.00
2019-05-30T14:04:12.149Z,96475.00
2019-05-30T14:09:41.490Z,96471.00
2019-05-30T14:15:14.465Z,96470.00
2019-05-30T14:20:45.944Z,96466.00
2019-05-30T14:26:15.241Z,96453.00
2019-05-30T14:31:46.539Z,96459.00
2019-05-30T14:37:16.101Z,96469.00
2019-05-30T14:42:45.477Z,96473.00
2019-05-30T14:48:14.773Z,96473.00
2019-05-30T14:53:45.482Z,96475.00
2019-05-30T14:59:14.770Z,96476.00
2019-05-30T15:04:44.118Z,96478.00
2019-05-30T15:10:17.278Z,96477.00
2019-05-30T15:15:46.561Z,96470.00
2019-05-30T15:21:16.673Z,96473.00
2019-05-30T15:26:45.893Z,96464.00
2019-05-30T15:32:15.217Z,96470.00
2019-05-30T15:37:44.503Z,96464.00
2019-05-30T15:43:13.809Z,96466.00
2019-05-30T15:48:43.224Z,96456.00
2019-05-30T15:54:15.011Z,96462.00
2019-05-30T15:59:44.347Z,96463.00
2019-05-30T16:05:14.590Z,96464.00
2019-05-30T16:10:44.541Z,96469.00
2019-05-30T16:16:13.990Z,96463.00
2019-05-30T16:21:43.402Z,96464.00
2019-05-30T16:27:13.686Z,96462.00
2019-05-30T16:32:43.046Z,96462.00
2019-05-30T16:38:12.475Z,96463.00
2019-05-30T16:43:41.759Z,96462.00
2019-05-30T16:49:11.179Z,96454.00
2019-05-30T16:54:42.237Z,96461.00
2019-05-30T17:00:15.669Z,96471.00
2019-05-30T17:05:45.127Z,96470.00
2019-05-30T17:11:15.330Z,96472.00
2019-05-30T17:16:44.668Z,96468.00
2019-05-30T17:22:13.941Z,96474.00
2019-05-30T17:27:43.218Z,96479.00
2019-05-30T17:33:12.511Z,96487.00
2019-05-30T17:38:41.818Z,96487.00
2019-05-30T17:44:11.105Z,96489.00
2019-05-30T17:49:41.526Z,96486.00
2019-05-30T17:55:13.521Z,96485.00
2019-05-30T18:00:42.858Z,96488.00
2019-05-30T18:06:12.163Z,96501.00
2019-05-30T18:11:41.526Z,96502.00
2019-05-30T18:17:10.922Z,96503.00
2019-05-30T18:22:40.341Z,96505.00
2019-05-30T18:28:10.602Z,96507.00
2019-05-30T18:33:40.059Z,96513.00
2019-05-30T18:39:09.864Z,96502.00
2019-05-30T18:44:39.249Z,96510.00
2019-05-30T18:50:09.888Z,96511.00
2019-05-30T18:55:40.479Z,96509.00
2019-05-30T19:01:10.807Z,96514.00
2019-05-30T19:06:40.125Z,96513.00
2019-05-30T19:12:10.888Z,96524.00
2019-05-30T19:17:50.799Z,96525.00
2019-05-30T19:23:20.245Z,96534.00
2019-05-30T19:28:49.692Z,96534.00
2019-05-30T19:34:18.973Z,96547.00
2019-05-30T19:39:48.295Z,96550.00
2019-05-30T19:45:18.916Z,96549.00
2019-05-30T19:50:48.219Z,96560.00
2019-05-30T19:56:17.480Z,96562.00
2019-05-30T20:01:46.851Z,96558.00
2019-05-30T20:07:16.202Z,96560.00
2019-05-30T20:12:45.959Z,96569.00
2019-05-30T20:18:15.230Z,96576.00
2019-05-30T20:23:52.594Z,96570.00
2019-05-30T20:29:15.783Z,96577.00
2019-05-30T20:34:45.079Z,96580.00
2019-05-30T20:40:17.778Z,96576.00
2019-05-30T20:45:49.866Z,96586.00
2019-05-30T20:51:21.412Z,96585.00
2019-05-30T20:56:51.744Z,96588.00
2019-05-30T21:02:21.311Z,96585.00
2019-05-30T21:07:52.403Z,96586.00
2019-05-30T21:13:21.685Z,96589.00
2019-05-30T21:18:52.952Z,96590.00
2019-05-30T21:24:23.232Z,96581.00
2019-05-30T21:29:52.511Z,96584.00
2019-05-30T21:35:22.113Z,96585.00
2019-05-30T21:40:51.451Z,96590.00
2019-05-30T21:46:20.759Z,96587.00
2019-05-30T21:51:50.139Z,96590.00
2019-05-30T21:57:19.413Z,96575.00
2019-05-30T22:02:54.198Z,96587.00
2019-05-30T22:08:23.488Z,96586.00
2019-05-30T22:13:52.868Z,96578.00
2019-05-30T22:19:22.207Z,96581.00
2019-05-30T22:24:52.470Z,96580.00
2019-05-30T22:30:21.771Z,96576.00
2019-05-30T22:35:51.086Z,96577.00
2019-05-30T22:41:20.321Z,96586.00
2019-05-30T22:46:50.225Z,96579.00
2019-05-30T22:52:19.591Z,96580.00
2019-05-30T22:57:48.831Z,96572.00
2019-05-30T23:03:18.119Z,96576.00
2019-05-30T23:08:48.500Z,96576.00
2019-05-30T23:14:17.879Z,96580.00
2019-05-30T23:19:48.508Z,96580.00
2019-05-30T23:25:18.173Z,96581.00
2019-05-30T23:30:47.812Z,96567.00
2019-05-30T23:36:18.066Z,96568.00
2019-05-30T23:41:47.329Z,96562.00
2019-05-30T23:47:16.631Z,96558.00
2019-05-30T23:52:45.894Z,96550.00
2019-05-30T23:58:15.168Z,96554.00
